Latest Coastal Weather Observations for Hervey Bay

IDQ60701

Issued at 8:21 am EST Friday 19 December 2014 (issued every 10 minutes, with the page automatically refreshed every 10 minutes)

About coastal observations | Map of coastal stations | Coastal observations for QLD | Marine services | Other Formats
Station Details ID: 040405 Name: HERVEY BAY AIRPORT Lat: -25.32 Lon: 152.88 Height: 12.98 m
Data from the previous 72 hours. | See also: Recent months at Hervey Bay
Date/Time
EST
Temp

°C
Wind Pressure Rain
since 9am
mm
Weather Cloud Vis
km
Sea
Height
m
Swell
Dir
 
Speed
knots
Gust
knots
hPa Trend Height
m
Period
s
Dir
19/08:00am 21.7 SSW 6 9 1013.0 - 3.2 - Partly cloudy 10 - - - -
19/07:30am 21.4 S 3 5 1012.6 - 3.2 - Partly cloudy 10 - - - -
19/07:00am 21.1 SSE 5 7 1012.2 - 3.0 - Partly cloudy 10 - - - -
19/06:30am 21.0 S 4 7 1012.5 - 2.8 - Partly cloudy 10 - - - -
19/06:00am 20.8 SSW 6 8 1012.4 - 2.8 - Cloudy 10 - - - -
19/05:30am 20.9 S 7 10 1012.4 - 2.8 - Partly cloudy 10 - - - -
19/05:22am 21.0 S 7 10 1012.4 - 2.8 - Partly cloudy 10 - - - -
19/05:00am 21.5 S 7 11 1012.2 - 2.8 - Partly cloudy 10 - - - -
19/04:30am 21.9 SW 8 12 1011.7 - 2.8 - Partly cloudy 10 - - - -
19/04:11am 22.4 SSW 6 9 1011.7 - 2.8 - Partly cloudy 10 - - - -
19/04:09am 22.3 SSW 6 9 1011.7 - 2.8 - Partly cloudy 10 - - - -
19/04:00am 22.4 SSW 5 9 1011.7 - 2.8 - Partly cloudy 10 - - - -
19/03:52am 22.6 SSW 5 7 1011.7 - 2.6 - Partly cloudy 10 - - - -
19/03:30am 22.5 SSW 4 6 1011.7 - 2.6 - Partly cloudy 10 - - - -
19/03:00am 22.4 SSW 5 7 1011.5 - 2.4 Rain Cloudy 10 - - - -
19/02:30am 22.6 SSW 4 5 1011.7 - 2.2 - Partly cloudy 10 - - - -
19/02:00am 22.3 SW 6 7 1012.0 - 2.0 - Partly cloudy 10 - - - -
19/01:30am 22.7 WSW 5 6 1012.3 - 1.8 - Partly cloudy 10 - - - -
19/01:00am 22.8 WSW 5 7 1012.3 - 1.8 - Partly cloudy 10 - - - -
19/12:30am 23.0 WSW 5 7 1012.2 - 1.6 - Partly cloudy 10 - - - -
19/12:00am 23.4 WNW 4 5 1012.0 - 1.6 - Cloudy 10 - - - -
 
Date/Time
EST
Temp

°C
Wind Pressure Rain
since 9am
mm
Weather Cloud Vis
km
Sea
Height
m
Swell
Dir
 
Speed
knots
Gust
knots
hPa Trend Height
m
Period
s
Dir
18/11:30pm 23.3 S 6 8 1012.0 - 1.6 - Partly cloudy 10 - - - -
18/11:00pm 23.9 WSW 6 8 1012.6 - 1.6 - Partly cloudy 10 - - - -
18/10:30pm 24.3 W 5 6 1012.4 - 1.0 - Partly cloudy 8 - - - -
18/10:00pm 24.7 NW 8 12 1012.5 - 0.2 - Partly cloudy 10 - - - -
18/09:30pm 26.5 NW 7 10 1012.4 - 0.0 - Partly cloudy 10 - - - -
18/09:00pm 26.5 NNW 9 13 1012.3 - 0.0 - Mostly cloudy 10 - - - -
18/08:30pm 26.5 WNW 8 12 1012.2 - 0.0 - Partly cloudy 10 - - - -
18/08:19pm 26.6 W 9 17 1012.3 - 0.0 - Partly cloudy 10 - - - -
18/08:00pm 26.4 N 11 16 1010.3 - 0.0 - - 10 - - - -
18/07:30pm 26.4 N 11 18 1010.1 - 0.0 - - 10 - - - -
18/07:00pm 26.5 N 14 22 1009.8 - 0.0 - Partly cloudy 10 - - - -
18/06:30pm 26.4 N 13 19 1009.6 - 0.0 - - 10 - - - -
18/06:00pm 26.6 N 13 17 1009.5 - 0.0 - Mostly clear 10 - - - -
18/05:30pm 26.8 N 13 21 1009.5 - 0.0 - Partly cloudy 10 - - - -
18/05:00pm 27.2 N 14 19 1009.1 - 0.0 - Partly cloudy 10 - - - -
18/04:30pm 27.4 N 15 21 1008.6 - 0.0 - - 10 - - - -
18/04:00pm 28.2 N 16 24 1008.2 - 0.0 - - 10 - - - -
18/03:30pm 28.5 N 16 23 1008.0 - 0.0 - - 10 - - - -
18/03:00pm 28.4 N 17 23 1008.0 - 0.0 - - 10 - - - -
18/02:32pm 28.7 N 15 25 1008.7 - 0.0 - Partly cloudy 10 - - - -
18/02:30pm 29.3 N 15 20 1008.7 - 0.0 - Partly cloudy 10 - - - -
18/02:00pm 29.3 N 17 25 1009.1 - 0.0 - - 10 - - - -
18/01:30pm 29.3 N 15 23 1009.8 - 0.0 - - 10 - - - -
18/01:00pm 29.5 N 16 23 1010.2 - 0.0 - - 10 - - - -
18/12:30pm 29.1 N 15 24 1010.4 - 0.0 - - 10 - - - -
18/12:00pm 28.8 N 16 22 1010.8 - 0.0 - Mostly clear 10 - - - -
18/11:30am 29.4 N 14 21 1011.1 - 0.0 - Partly cloudy 10 - - - -
18/11:00am 28.9 N 16 22 1011.4 - 0.0 - Partly cloudy 10 - - - -
18/10:30am 28.6 N 16 23 1011.8 - 0.0 - Partly cloudy 10 - - - -
18/10:00am 28.9 N 13 19 1012.2 - 0.0 - Partly cloudy 10 - - - -
18/09:30am 28.5 N 13 19 1012.1 - 0.0 - Partly cloudy 10 - - - -
18/09:00am 28.8 N 13 19 1012.1 - 0.4 - Cloudy 10 - - - -
18/08:30am 28.5 N 12 16 1012.1 - 0.4 - Partly cloudy 10 - - - -
18/08:00am 27.6 N 11 15 1012.0 - 0.4 - Partly cloudy 10 - - - -
18/07:55am 27.5 N 11 15 1012.0 - 0.4 - Partly cloudy 10 - - - -
18/07:30am 27.9 N 10 17 1011.8 - 0.4 - Partly cloudy 10 - - - -
18/07:22am 27.8 N 11 15 1011.8 - 0.4 - Partly cloudy 10 - - - -
18/07:18am 27.4 N 11 15 1011.8 - 0.4 - Partly cloudy 10 - - - -
18/07:07am 27.6 N 10 15 1012.1 - 0.4 - Partly cloudy 10 - - - -
18/07:00am 27.5 N 10 14 1011.9 - 0.4 - Partly cloudy 10 - - - -
18/06:30am 27.3 N 9 16 1011.7 - 0.4 - Partly cloudy 10 - - - -
18/06:24am 27.2 NNW 9 14 1011.6 - 0.4 - Partly cloudy 10 - - - -
18/06:03am 26.7 N 9 13 1011.4 - 0.4 - Partly cloudy 9 - - - -
18/06:00am 26.8 NNW 9 13 1011.3 - 0.4 - Cloudy 9 - - - -
18/05:30am 26.5 NNW 8 13 1010.8 - 0.4 - Partly cloudy 10 - - - -
18/05:00am 26.3 N 10 15 1009.9 - 0.4 - Partly cloudy 10 - - - -
18/04:38am 26.2 N 8 12 1009.4 - 0.4 - Partly cloudy 10 - - - -
18/04:30am 26.3 N 10 14 1009.3 - 0.4 - Partly cloudy 10 - - - -
18/04:27am 26.2 N 9 13 1009.2 - 0.4 - Partly cloudy 10 - - - -
18/04:22am 26.2 N 9 13 1009.1 - 0.4 - Partly cloudy 10 - - - -
18/04:09am 26.3 N 7 11 1009.0 - 0.4 - Partly cloudy 10 - - - -
18/04:00am 26.3 N 9 14 1009.0 - 0.4 - Partly cloudy 10 - - - -
18/03:30am 26.3 N 9 14 1008.6 - 0.4 - Partly cloudy 10 - - - -
18/03:00am 26.3 N 9 13 1008.5 - 0.4 - Cloudy 10 - - - -
18/02:30am 26.2 N 8 12 1008.1 - 0.4 - - 10 - - - -
18/02:00am 26.2 N 9 13 1008.0 - 0.4 - - 10 - - - -
18/01:30am 26.3 N 11 16 1008.0 - 0.4 - - 10 - - - -
18/01:00am 26.2 NNW 11 17 1007.9 - 0.4 - - 10 - - - -
18/12:30am 26.0 NNW 11 17 1008.5 - 0.4 - - 10 - - - -
18/12:00am 26.1 N 13 19 1008.5 - 0.4 - Mostly clear 10 - - - -
 
Date/Time
EST
Temp

°C
Wind Pressure Rain
since 9am
mm
Weather Cloud Vis
km
Sea
Height
m
Swell
Dir
 
Speed
knots
Gust
knots
hPa Trend Height
m
Period
s
Dir
17/11:30pm 26.3 N 14 22 1008.5 - 0.4 - - 10 - - - -
17/11:19pm 25.9 N 15 25 1008.6 - 0.4 - - 10 - - - -
17/11:00pm 25.4 NNE 16 21 1009.2 - 0.4 - - 10 - - - -
17/10:30pm 24.4 ENE 13 17 1010.1 - 0.4 - - 10 - - - -
17/10:00pm 24.1 ENE 12 16 1011.0 - 0.4 - Partly cloudy 10 - - - -
17/09:30pm 22.5 SE 10 17 1011.2 - 0.4 - Partly cloudy 10 - - - -
17/09:07pm 23.0 S 9 19 1011.3 - 0.4 - Partly cloudy 10 - - - -
17/09:00pm 23.0 SSE 10 17 1010.8 - 0.4 Rain Cloudy 7 - - - -
17/08:54pm 23.1 S 11 20 1011.0 - 0.4 - Partly cloudy 5 - - - -
17/08:40pm 24.4 SW 17 27 1010.5 - 0.0 - Partly cloudy 10 - - - -
17/08:30pm 26.2 W 12 24 1010.2 - 0.0 - Partly cloudy 10 - - - -
17/08:27pm 26.9 NW 11 17 1009.6 - 0.0 - Partly cloudy 10 - - - -
17/08:00pm 26.7 N 13 20 1007.2 - 0.0 - Partly cloudy 10 - - - -
17/07:30pm 26.7 N 12 17 1007.3 - 0.0 - Partly cloudy 10 - - - -
17/07:00pm 26.7 NNE 10 14 1007.2 - 0.0 - - 10 - - - -
17/06:30pm 26.7 N 12 18 1006.9 - 0.0 - Partly cloudy 10 - - - -
17/06:00pm 27.0 N 10 15 1006.3 - 0.0 - Mostly clear 10 - - - -
17/05:30pm 27.3 N 12 18 1005.6 - 0.0 - Partly cloudy 10 - - - -
17/05:00pm 28.4 N 13 20 1005.4 - 0.0 - - 10 - - - -
17/04:30pm 28.1 N 13 18 1005.3 - 0.0 - - 10 - - - -
17/04:00pm 28.7 N 14 21 1005.0 - 0.0 - - 10 - - - -
17/03:30pm 28.9 N 15 21 1005.0 - 0.0 - - 10 - - - -
17/03:00pm 29.2 N 15 19 1005.2 - 0.0 - - 10 - - - -
17/02:30pm 28.9 N 13 19 1005.6 - 0.0 - - 10 - - - -
17/02:00pm 29.4 N 14 19 1006.0 - 0.0 - - 10 - - - -
17/01:30pm 29.2 N 14 19 1006.3 - 0.0 - - 10 - - - -
17/01:00pm 29.7 N 13 20 1006.5 - 0.0 - - 10 - - - -
17/12:30pm 29.7 N 14 19 1006.9 - 0.0 - - 10 - - - -
17/12:00pm 29.8 N 15 21 1007.1 - 0.0 - - 10 - - - -
17/11:30am 29.5 NNW 15 21 1007.4 - 0.0 - - 10 - - - -
17/11:00am 29.6 NNW 14 18 1007.8 - 0.0 - - 10 - - - -
17/10:30am 29.5 NNW 12 16 1007.8 - 0.0 - - 10 - - - -
17/10:00am 29.0 NNW 13 18 1007.7 - 0.0 - - 10 - - - -
17/09:30am 28.7 NNW 14 17 1007.8 - 0.0 - - 10 - - - -
17/09:00am 27.2 NNW 12 17 1007.9 - 0.0 - Mostly cloudy 10 - - - -
17/08:30am 27.1 NNW 11 16 1008.2 - 0.0 - Partly cloudy 10 - - - -
17/08:00am 27.1 NNW 11 16 1008.2 - 0.0 - Partly cloudy 10 - - - -
17/07:30am 26.7 N 12 16 1008.3 - 0.0 - Partly cloudy 10 - - - -
17/07:00am 26.6 NNW 9 16 1008.2 - 0.0 - Partly cloudy 10 - - - -
17/06:30am 26.1 NNW 9 13 1007.7 - 0.0 - Partly cloudy 10 - - - -
17/06:00am 26.0 N 8 13 1007.2 - 0.0 - Cloudy 10 - - - -
17/05:30am 25.8 N 7 10 1007.1 - 0.0 - Partly cloudy 10 - - - -
17/05:29am 25.8 N 7 10 1007.1 - 0.0 - Partly cloudy 10 - - - -
17/05:09am 25.8 N 7 10 1006.8 - 0.0 - Partly cloudy 10 - - - -
17/05:00am 25.6 NNW 6 10 1006.7 - 0.0 - Partly cloudy 10 - - - -
17/04:52am 25.6 N 4 7 1006.6 - 0.0 - Partly cloudy 10 - - - -
17/04:38am 25.5 N 7 9 1006.3 - 0.0 - Partly cloudy 10 - - - -
17/04:30am 25.5 N 7 10 1006.1 - 0.0 - Partly cloudy 10 - - - -
17/04:00am 25.1 NNE 7 11 1005.7 - 0.0 - - 10 - - - -
17/03:30am 25.0 NNE 5 7 1006.0 - 0.0 - - 10 - - - -
17/03:00am 24.9 NW 3 5 1006.8 - 0.0 - Mostly cloudy 10 - - - -
17/02:30am 25.1 N 5 7 1006.9 - 0.0 - Partly cloudy 10 - - - -
17/02:00am 25.3 WSW 2 4 1007.6 - 0.0 - Partly cloudy 10 - - - -
17/01:42am 25.5 WNW 4 6 1007.6 - 0.0 - Partly cloudy 10 - - - -
17/01:32am 25.6 WNW 5 9 1007.5 - 0.0 - Partly cloudy 10 - - - -
17/01:30am 25.6 W 5 9 1007.7 - 0.0 - Partly cloudy 10 - - - -
17/01:00am 25.7 NW 7 10 1008.0 - 0.0 - Partly cloudy 10 - - - -
17/12:30am 25.6 NNW 10 13 1007.1 - 0.0 - Partly cloudy 10 - - - -
17/12:00am 25.5 N 10 16 1007.2 - 0.0 - Cloudy 10 - - - -
 
Date/Time
EST
Temp

°C
Wind Pressure Rain
since 9am
mm
Weather Cloud Vis
km
Sea
Height
m
Swell
Dir
 
Speed
knots
Gust
knots
hPa Trend Height
m
Period
s
Dir
16/11:30pm 25.6 N 11 17 1007.4 - 0.0 - - 10 - - - -
16/11:00pm 25.6 N 12 18 1007.8 - 0.0 - Partly cloudy 10 - - - -
16/10:30pm 25.4 N 12 20 1007.9 - 0.0 - - 10 - - - -
16/10:00pm 25.5 N 9 16 1008.0 - 0.0 - - 10 - - - -
16/09:30pm 25.5 N 11 15 1008.0 - 0.0 - - 10 - - - -
16/09:00pm 25.4 N 9 14 1008.0 - 0.0 - - 10 - - - -
16/08:30pm 25.4 N 11 16 1008.0 - 0.0 - - 10 - - - -
16/08:00pm 25.3 N 8 14 1007.8 - 0.0 - - 10 - - - -
16/07:30pm 25.3 N 9 12 1007.6 - 0.0 - - 10 - - - -
16/07:00pm 25.3 N 8 11 1007.3 - 0.0 - - 10 - - - -
16/06:30pm 25.4 N 9 13 1007.0 - 0.0 - - 10 - - - -
16/06:00pm 26.0 N 9 14 1006.9 - 0.0 - - 10 - - - -
16/05:30pm 26.3 N 11 16 1006.5 - 0.0 - - 10 - - - -
16/05:00pm 26.7 N 12 16 1006.1 - 0.0 - - 10 - - - -
16/04:30pm 27.0 N 12 16 1006.3 - 0.0 - - 10 - - - -
16/04:00pm 27.3 N 11 16 1006.7 - 0.0 - - 10 - - - -
16/03:30pm 27.2 N 12 16 1006.7 - 0.0 - Partly cloudy 10 - - - -
16/03:00pm 27.6 NNE 12 15 1006.8 - 0.0 - - 10 - - - -
16/02:30pm 27.6 N 11 15 1007.7 - 0.0 - - 10 - - - -
16/02:00pm 27.1 NNE 11 16 1007.9 - 0.0 - - 10 - - - -
16/01:30pm 27.2 N 11 18 1008.5 - 0.0 - - 10 - - - -
16/01:00pm 27.4 NNE 11 16 1008.7 - 0.0 - - 10 - - - -
16/12:30pm 27.3 N 11 16 1009.0 - 0.0 - - 10 - - - -
16/12:00pm 27.0 N 11 16 1009.4 - 0.0 - - 10 - - - -
16/11:30am 27.4 N 11 16 1009.7 - 0.0 - - 10 - - - -
16/11:00am 27.7 N 11 15 1010.0 - 0.0 - - 10 - - - -
16/10:30am 27.6 N 10 13 1010.4 - 0.0 - Partly cloudy 10 - - - -
16/10:00am 27.2 NNW 8 14 1010.8 - 0.0 - - 10 - - - -
16/09:30am 26.6 NE 8 12 1010.9 - 0.0 - Partly cloudy 10 - - - -
16/09:00am 26.0 ENE 6 10 1011.1 - 0.0 - Partly cloudy 10 - - - -
16/08:30am 25.0 ENE 5 6 1011.4 - 0.0 - Partly cloudy 10 - - - -

Other Formats:

Comma delimited format used in spreadsheet applications
http://www.bom.gov.au/fwo/IDQ60701/IDQ60701.95565.axf

JavaScript Object Notation format (JSON) in row-major order
http://www.bom.gov.au/fwo/IDQ60701/IDQ60701.95565.json